sensor_id;sensor_type;location;lat;lon;timestamp;pressure;altitude;pressure_sealevel;temperature;humidity
55466;BME280;41329;41.594;23.810;2022-10-22T00:02:10;96181.06;;;9.71;59.02
55466;BME280;41329;41.594;23.810;2022-10-22T00:04:40;96183.84;;;9.71;59.33
55466;BME280;41329;41.594;23.810;2022-10-22T00:07:05;96170.69;;;9.56;58.46
55466;BME280;41329;41.594;23.810;2022-10-22T00:09:30;96190.72;;;9.65;58.37
55466;BME280;41329;41.594;23.810;2022-10-22T00:11:56;96176.44;;;9.51;58.93
55466;BME280;41329;41.594;23.810;2022-10-22T00:14:21;96170.81;;;9.47;59.25
55466;BME280;41329;41.594;23.810;2022-10-22T00:16:47;96179.22;;;9.51;59.61
55466;BME280;41329;41.594;23.810;2022-10-22T00:19:12;96184.41;;;9.52;59.88
55466;BME280;41329;41.594;23.810;2022-10-22T00:21:39;96183.91;;;9.50;59.83
55466;BME280;41329;41.594;23.810;2022-10-22T00:24:04;96187.41;;;9.47;60.27
55466;BME280;41329;41.594;23.810;2022-10-22T00:26:30;96146.16;;;9.18;59.39
55466;BME280;41329;41.594;23.810;2022-10-22T00:28:55;96184.13;;;9.33;59.15
55466;BME280;41329;41.594;23.810;2022-10-22T00:31:20;96182.28;;;9.25;59.17
55466;BME280;41329;41.594;23.810;2022-10-22T00:33:46;96190.44;;;9.22;59.86
55466;BME280;41329;41.594;23.810;2022-10-22T00:36:13;96180.31;;;9.14;60.06
55466;BME280;41329;41.594;23.810;2022-10-22T00:38:39;96180.78;;;9.16;60.20
55466;BME280;41329;41.594;23.810;2022-10-22T00:41:05;96170.88;;;9.15;60.53
55466;BME280;41329;41.594;23.810;2022-10-22T00:43:30;96171.22;;;9.13;60.80
55466;BME280;41329;41.594;23.810;2022-10-22T00:45:56;96163.03;;;9.05;60.69
55466;BME280;41329;41.594;23.810;2022-10-22T00:48:27;96168.34;;;9.10;61.28
55466;BME280;41329;41.594;23.810;2022-10-22T00:50:59;96163.50;;;9.07;61.42
55466;BME280;41329;41.594;23.810;2022-10-22T00:53:34;96169.38;;;9.05;61.74
55466;BME280;41329;41.594;23.810;2022-10-22T00:56:00;96154.06;;;8.96;62.01
55466;BME280;41329;41.594;23.810;2022-10-22T00:58:28;96167.41;;;9.06;61.67
55466;BME280;41329;41.594;23.810;2022-10-22T01:00:55;96157.75;;;9.00;61.31
55466;BME280;41329;41.594;23.810;2022-10-22T01:03:21;96167.41;;;9.06;61.02
55466;BME280;41329;41.594;23.810;2022-10-22T01:05:58;96158.66;;;9.04;61.30
55466;BME280;41329;41.594;23.810;2022-10-22T01:11:14;96110.97;;;8.71;61.88
55466;BME280;41329;41.594;23.810;2022-10-22T01:16:34;96175.69;;;9.06;62.75
55466;BME280;41329;41.594;23.810;2022-10-22T01:21:54;96168.44;;;9.01;62.31
55466;BME280;41329;41.594;23.810;2022-10-22T01:24:37;96172.47;;;9.04;62.19
55466;BME280;41329;41.594;23.810;2022-10-22T01:30:02;96169.13;;;8.98;61.54
55466;BME280;41329;41.594;23.810;2022-10-22T01:32:42;96147.81;;;8.87;61.59
55466;BME280;41329;41.594;23.810;2022-10-22T01:35:11;96170.28;;;8.97;61.17
55466;BME280;41329;41.594;23.810;2022-10-22T01:37:49;96169.78;;;8.95;61.28
55466;BME280;41329;41.594;23.810;2022-10-22T01:40:18;96165.44;;;8.94;60.98
55466;BME280;41329;41.594;23.810;2022-10-22T01:43:02;96155.63;;;8.85;61.05
55466;BME280;41329;41.594;23.810;2022-10-22T01:45:32;96152.84;;;8.85;61.20
55466;BME280;41329;41.594;23.810;2022-10-22T01:51:30;96146.56;;;8.84;61.65
55466;BME280;41329;41.594;23.810;2022-10-22T01:57:01;96135.34;;;8.69;61.37
55466;BME280;41329;41.594;23.810;2022-10-22T02:00:12;96151.81;;;8.77;61.21
55466;BME280;41329;41.594;23.810;2022-10-22T02:03:24;96144.22;;;8.74;61.39
55466;BME280;41329;41.594;23.810;2022-10-22T02:05:54;96143.28;;;8.70;61.26
55466;BME280;41329;41.594;23.810;2022-10-22T02:08:23;96134.50;;;8.56;61.51
55466;BME280;41329;41.594;23.810;2022-10-22T02:10:49;96129.44;;;8.58;62.00
55466;BME280;41329;41.594;23.810;2022-10-22T02:13:22;96141.16;;;8.55;62.60
55466;BME280;41329;41.594;23.810;2022-10-22T02:15:50;96136.78;;;8.54;62.75
55466;BME280;41329;41.594;23.810;2022-10-22T02:18:19;96140.03;;;8.56;62.54
55466;BME280;41329;41.594;23.810;2022-10-22T02:20:46;96138.03;;;8.57;62.55
55466;BME280;41329;41.594;23.810;2022-10-22T02:23:13;96126.28;;;8.48;61.95
55466;BME280;41329;41.594;23.810;2022-10-22T02:25:41;96151.84;;;8.57;61.45
55466;BME280;41329;41.594;23.810;2022-10-22T02:28:38;96156.09;;;8.54;61.59
55466;BME280;41329;41.594;23.810;2022-10-22T02:31:12;96138.69;;;8.42;61.81
55466;BME280;41329;41.594;23.810;2022-10-22T02:33:46;96159.38;;;8.48;61.90
55466;BME280;41329;41.594;23.810;2022-10-22T02:36:15;96146.78;;;8.26;62.44
55466;BME280;41329;41.594;23.810;2022-10-22T02:38:42;96150.47;;;8.30;63.25
55466;BME280;41329;41.594;23.810;2022-10-22T02:41:08;96160.25;;;8.28;64.01
55466;BME280;41329;41.594;23.810;2022-10-22T02:43:40;96148.94;;;8.21;64.20
55466;BME280;41329;41.594;23.810;2022-10-22T02:46:07;96161.75;;;8.17;64.06
55466;BME280;41329;41.594;23.810;2022-10-22T02:48:33;96175.66;;;8.20;64.03
55466;BME280;41329;41.594;23.810;2022-10-22T02:50:58;96169.88;;;8.13;64.24
55466;BME280;41329;41.594;23.810;2022-10-22T02:53:24;96145.00;;;8.01;64.55
55466;BME280;41329;41.594;23.810;2022-10-22T02:55:49;96162.94;;;8.07;64.32
55466;BME280;41329;41.594;23.810;2022-10-22T02:58:14;96170.28;;;8.03;64.50
55466;BME280;41329;41.594;23.810;2022-10-22T03:00:40;96182.34;;;7.90;63.62
55466;BME280;41329;41.594;23.810;2022-10-22T03:03:05;96177.38;;;7.84;63.73
55466;BME280;41329;41.594;23.810;2022-10-22T03:05:31;96171.88;;;7.84;63.58
55466;BME280;41329;41.594;23.810;2022-10-22T03:07:56;96165.53;;;7.83;63.45
55466;BME280;41329;41.594;23.810;2022-10-22T03:10:22;96158.59;;;7.57;63.57
55466;BME280;41329;41.594;23.810;2022-10-22T03:12:47;96155.22;;;7.51;64.14
55466;BME280;41329;41.594;23.810;2022-10-22T03:15:12;96170.41;;;7.57;65.22
55466;BME280;41329;41.594;23.810;2022-10-22T03:17:38;96172.31;;;7.65;65.53
55466;BME280;41329;41.594;23.810;2022-10-22T03:20:04;96165.00;;;7.69;65.93
55466;BME280;41329;41.594;23.810;2022-10-22T03:22:30;96158.50;;;7.74;66.23
55466;BME280;41329;41.594;23.810;2022-10-22T03:24:59;96151.19;;;7.78;66.21
55466;BME280;41329;41.594;23.810;2022-10-22T03:27:27;96160.03;;;7.83;66.08
55466;BME280;41329;41.594;23.810;2022-10-22T03:29:54;96156.69;;;7.78;65.81
55466;BME280;41329;41.594;23.810;2022-10-22T03:32:21;96163.31;;;7.77;65.74
55466;BME280;41329;41.594;23.810;2022-10-22T03:34:46;96166.69;;;7.82;65.50
55466;BME280;41329;41.594;23.810;2022-10-22T03:37:11;96149.69;;;7.80;65.61
55466;BME280;41329;41.594;23.810;2022-10-22T03:39:37;96151.09;;;7.86;66.08
55466;BME280;41329;41.594;23.810;2022-10-22T03:42:04;96154.59;;;7.95;66.26
55466;BME280;41329;41.594;23.810;2022-10-22T03:44:31;96160.44;;;7.94;66.02
55466;BME280;41329;41.594;23.810;2022-10-22T03:46:57;96120.84;;;7.57;65.89
55466;BME280;41329;41.594;23.810;2022-10-22T03:49:22;96172.72;;;7.76;65.24
55466;BME280;41329;41.594;23.810;2022-10-22T03:51:48;96174.59;;;7.63;65.59
55466;BME280;41329;41.594;23.810;2022-10-22T03:54:14;96128.22;;;7.07;66.08
55466;BME280;41329;41.594;23.810;2022-10-22T03:56:40;96177.00;;;7.36;66.38
55466;BME280;41329;41.594;23.810;2022-10-22T03:59:05;96181.69;;;7.35;66.32
55466;BME280;41329;41.594;23.810;2022-10-22T04:01:31;96186.38;;;7.35;66.86
55466;BME280;41329;41.594;23.810;2022-10-22T04:03:57;96187.81;;;7.41;66.31
55466;BME280;41329;41.594;23.810;2022-10-22T04:06:23;96177.97;;;7.40;66.66
55466;BME280;41329;41.594;23.810;2022-10-22T04:08:49;96175.97;;;7.49;67.00
55466;BME280;41329;41.594;23.810;2022-10-22T04:11:15;96183.09;;;7.50;66.47
55466;BME280;41329;41.594;23.810;2022-10-22T04:13:42;96195.44;;;7.44;66.55
55466;BME280;41329;41.594;23.810;2022-10-22T04:16:11;96190.34;;;7.17;67.21
55466;BME280;41329;41.594;23.810;2022-10-22T04:18:37;96185.03;;;7.12;67.17
55466;BME280;41329;41.594;23.810;2022-10-22T04:21:04;96191.00;;;7.14;67.39
55466;BME280;41329;41.594;23.810;2022-10-22T04:23:29;96190.53;;;7.03;67.58
55466;BME280;41329;41.594;23.810;2022-10-22T04:25:59;96181.97;;;7.05;67.40
55466;BME280;41329;41.594;23.810;2022-10-22T04:28:25;96178.75;;;7.03;67.58
55466;BME280;41329;41.594;23.810;2022-10-22T04:30:50;96165.34;;;6.93;67.40
55466;BME280;41329;41.594;23.810;2022-10-22T04:33:16;96188.28;;;7.05;67.24
55466;BME280;41329;41.594;23.810;2022-10-22T04:35:41;96183.75;;;7.01;67.65
55466;BME280;41329;41.594;23.810;2022-10-22T04:38:06;96183.13;;;7.04;67.76
55466;BME280;41329;41.594;23.810;2022-10-22T04:40:32;96178.44;;;7.04;67.74
55466;BME280;41329;41.594;23.810;2022-10-22T04:42:57;96170.97;;;7.05;67.92
55466;BME280;41329;41.594;23.810;2022-10-22T04:45:23;96176.78;;;7.12;68.52
55466;BME280;41329;41.594;23.810;2022-10-22T04:47:48;96163.84;;;7.12;68.71
55466;BME280;41329;41.594;23.810;2022-10-22T04:50:14;96169.63;;;7.19;68.59
55466;BME280;41329;41.594;23.810;2022-10-22T04:52:39;96167.50;;;7.16;68.37
55466;BME280;41329;41.594;23.810;2022-10-22T04:55:05;96169.34;;;7.12;68.40
55466;BME280;41329;41.594;23.810;2022-10-22T04:57:31;96169.03;;;7.05;68.39
55466;BME280;41329;41.594;23.810;2022-10-22T04:59:56;96163.25;;;6.90;68.81
55466;BME280;41329;41.594;23.810;2022-10-22T05:02:22;96166.00;;;6.90;69.13
55466;BME280;41329;41.594;23.810;2022-10-22T05:04:47;96183.75;;;7.01;69.03
55466;BME280;41329;41.594;23.810;2022-10-22T05:07:13;96187.00;;;7.03;69.02
55466;BME280;41329;41.594;23.810;2022-10-22T05:09:38;96171.38;;;6.78;69.54
55466;BME280;41329;41.594;23.810;2022-10-22T05:12:04;96176.88;;;6.69;69.93
55466;BME280;41329;41.594;23.810;2022-10-22T05:14:30;96163.16;;;6.52;69.92
55466;BME280;41329;41.594;23.810;2022-10-22T05:16:56;96181.28;;;6.62;70.01
55466;BME280;41329;41.594;23.810;2022-10-22T05:19:24;96187.63;;;6.45;70.50
55466;BME280;41329;41.594;23.810;2022-10-22T05:21:54;96187.41;;;6.58;70.59
55466;BME280;41329;41.594;23.810;2022-10-22T05:24:20;96191.31;;;6.57;70.85
55466;BME280;41329;41.594;23.810;2022-10-22T05:26:51;96197.78;;;6.62;70.34
55466;BME280;41329;41.594;23.810;2022-10-22T05:29:17;96185.66;;;6.54;69.89
55466;BME280;41329;41.594;23.810;2022-10-22T05:31:43;96199.19;;;6.68;70.12
55466;BME280;41329;41.594;23.810;2022-10-22T05:34:09;96199.06;;;6.73;70.06
55466;BME280;41329;41.594;23.810;2022-10-22T05:36:34;96200.66;;;6.74;70.14
55466;BME280;41329;41.594;23.810;2022-10-22T05:39:00;96199.06;;;6.73;69.76
55466;BME280;41329;41.594;23.810;2022-10-22T05:41:26;96200.53;;;6.70;69.33
55466;BME280;41329;41.594;23.810;2022-10-22T05:43:57;96195.84;;;6.45;70.00
55466;BME280;41329;41.594;23.810;2022-10-22T05:46:28;96195.38;;;6.34;70.25
55466;BME280;41329;41.594;23.810;2022-10-22T05:49:01;96185.66;;;6.28;70.24
55466;BME280;41329;41.594;23.810;2022-10-22T05:51:29;96176.44;;;6.24;70.41
55466;BME280;41329;41.594;23.810;2022-10-22T05:54:00;96188.25;;;6.25;70.34
55466;BME280;41329;41.594;23.810;2022-10-22T05:56:27;96195.38;;;6.26;70.77
55466;BME280;41329;41.594;23.810;2022-10-22T05:58:52;96187.28;;;6.21;70.82
55466;BME280;41329;41.594;23.810;2022-10-22T06:01:20;96194.41;;;6.30;70.94
55466;BME280;41329;41.594;23.810;2022-10-22T06:03:47;96168.84;;;6.04;71.04
55466;BME280;41329;41.594;23.810;2022-10-22T06:08:47;96182.28;;;5.41;73.98
55466;BME280;41329;41.594;23.810;2022-10-22T06:11:14;96186.25;;;5.66;73.68
55466;BME280;41329;41.594;23.810;2022-10-22T06:13:42;96192.88;;;5.73;74.42
55466;BME280;41329;41.594;23.810;2022-10-22T06:16:07;96187.75;;;5.80;74.11
55466;BME280;41329;41.594;23.810;2022-10-22T06:18:33;96197.78;;;5.93;74.18
55466;BME280;41329;41.594;23.810;2022-10-22T06:21:10;96189.53;;;6.02;74.13
55466;BME280;41329;41.594;23.810;2022-10-22T06:23:37;96202.00;;;6.16;74.83
55466;BME280;41329;41.594;23.810;2022-10-22T06:26:03;96207.66;;;6.37;75.09
55466;BME280;41329;41.594;23.810;2022-10-22T06:28:29;96205.69;;;6.54;74.92
55466;BME280;41329;41.594;23.810;2022-10-22T06:30:56;96189.66;;;6.65;74.75
55466;BME280;41329;41.594;23.810;2022-10-22T06:33:22;96203.88;;;6.76;73.98
55466;BME280;41329;41.594;23.810;2022-10-22T06:35:47;96207.28;;;6.90;73.55
55466;BME280;41329;41.594;23.810;2022-10-22T06:38:13;96196.28;;;6.90;73.23
55466;BME280;41329;41.594;23.810;2022-10-22T06:40:39;96198.38;;;6.76;72.81
55466;BME280;41329;41.594;23.810;2022-10-22T06:43:08;96186.59;;;6.75;72.84
55466;BME280;41329;41.594;23.810;2022-10-22T06:45:34;96196.09;;;6.95;72.50
55466;BME280;41329;41.594;23.810;2022-10-22T06:47:59;96187.00;;;6.94;72.20
55466;BME280;41329;41.594;23.810;2022-10-22T06:50:25;96173.31;;;6.86;72.45
55466;BME280;41329;41.594;23.810;2022-10-22T06:52:50;96191.81;;;7.14;72.77
55466;BME280;41329;41.594;23.810;2022-10-22T06:55:15;96186.44;;;7.26;73.57
55466;BME280;41329;41.594;23.810;2022-10-22T06:57:41;96195.75;;;7.42;73.71
55466;BME280;41329;41.594;23.810;2022-10-22T07:00:07;96181.94;;;7.51;73.72
55466;BME280;41329;41.594;23.810;2022-10-22T07:02:32;96189.13;;;7.72;73.95
55466;BME280;41329;41.594;23.810;2022-10-22T07:04:58;96199.44;;;8.04;73.95
55466;BME280;41329;41.594;23.810;2022-10-22T07:07:23;96201.63;;;8.19;73.26
55466;BME280;41329;41.594;23.810;2022-10-22T07:09:49;96186.91;;;8.36;73.61
55466;BME280;41329;41.594;23.810;2022-10-22T07:12:16;96190.22;;;8.50;72.72
55466;BME280;41329;41.594;23.810;2022-10-22T07:14:41;96195.69;;;8.70;72.75
55466;BME280;41329;41.594;23.810;2022-10-22T07:17:07;96199.31;;;8.83;72.07
55466;BME280;41329;41.594;23.810;2022-10-22T07:19:33;96187.72;;;8.89;71.30
55466;BME280;41329;41.594;23.810;2022-10-22T07:21:58;96189.81;;;9.04;70.07
55466;BME280;41329;41.594;23.810;2022-10-22T07:24:24;96195.91;;;8.98;68.98
55466;BME280;41329;41.594;23.810;2022-10-22T07:26:49;96179.84;;;9.12;69.91
55466;BME280;41329;41.594;23.810;2022-10-22T07:29:15;96184.38;;;9.40;69.65
55466;BME280;41329;41.594;23.810;2022-10-22T07:31:41;96170.34;;;9.45;67.92
55466;BME280;41329;41.594;23.810;2022-10-22T07:34:07;96176.81;;;9.61;67.65
55466;BME280;41329;41.594;23.810;2022-10-22T07:36:32;96177.03;;;9.68;66.82
55466;BME280;41329;41.594;23.810;2022-10-22T07:38:58;96162.16;;;9.73;67.19
55466;BME280;41329;41.594;23.810;2022-10-22T07:41:25;96168.50;;;9.85;66.25
55466;BME280;41329;41.594;23.810;2022-10-22T07:43:51;96157.41;;;9.97;65.80
55466;BME280;41329;41.594;23.810;2022-10-22T07:46:17;96181.53;;;10.09;65.52
55466;BME280;41329;41.594;23.810;2022-10-22T07:48:42;96169.97;;;10.19;65.67
55466;BME280;41329;41.594;23.810;2022-10-22T07:51:08;96172.25;;;10.29;64.52
55466;BME280;41329;41.594;23.810;2022-10-22T07:53:33;96168.53;;;10.37;65.01
55466;BME280;41329;41.594;23.810;2022-10-22T07:55:59;96174.25;;;10.16;63.93
55466;BME280;41329;41.594;23.810;2022-10-22T07:58:25;96164.19;;;10.24;64.65
55466;BME280;41329;41.594;23.810;2022-10-22T08:00:54;96150.84;;;10.26;64.72
55466;BME280;41329;41.594;23.810;2022-10-22T08:03:20;96167.16;;;10.43;64.83
55466;BME280;41329;41.594;23.810;2022-10-22T08:05:45;96162.69;;;10.66;65.30
55466;BME280;41329;41.594;23.810;2022-10-22T08:08:13;96170.78;;;10.86;64.57
55466;BME280;41329;41.594;23.810;2022-10-22T08:10:39;96149.88;;;10.73;63.98
55466;BME280;41329;41.594;23.810;2022-10-22T08:13:05;96153.16;;;10.79;64.24
55466;BME280;41329;41.594;23.810;2022-10-22T08:15:31;96160.63;;;10.90;63.74
55466;BME280;41329;41.594;23.810;2022-10-22T08:17:56;96109.59;;;10.76;64.12
55466;BME280;41329;41.594;23.810;2022-10-22T08:20:22;96164.00;;;11.27;64.28
55466;BME280;41329;41.594;23.810;2022-10-22T08:22:47;96164.34;;;11.41;62.31
55466;BME280;41329;41.594;23.810;2022-10-22T08:25:13;96160.53;;;11.61;62.13
55466;BME280;41329;41.594;23.810;2022-10-22T08:27:39;96165.19;;;11.72;61.13
55466;BME280;41329;41.594;23.810;2022-10-22T08:30:06;96152.22;;;11.76;61.24
55466;BME280;41329;41.594;23.810;2022-10-22T08:32:31;96160.22;;;11.97;61.48
55466;BME280;41329;41.594;23.810;2022-10-22T08:34:57;96145.00;;;12.06;60.21
55466;BME280;41329;41.594;23.810;2022-10-22T08:37:22;96141.47;;;12.25;60.97
55466;BME280;41329;41.594;23.810;2022-10-22T08:39:48;96126.56;;;12.33;59.80
55466;BME280;41329;41.594;23.810;2022-10-22T08:50:22;96125.47;;;12.95;56.92
55466;BME280;41329;41.594;23.810;2022-10-22T08:52:51;96126.78;;;13.20;57.14
55466;BME280;41329;41.594;23.810;2022-10-22T08:55:22;96114.97;;;13.26;57.17
55466;BME280;41329;41.594;23.810;2022-10-22T09:01:32;96130.47;;;13.72;57.14
55466;BME280;41329;41.594;23.810;2022-10-22T09:06:24;96128.63;;;14.06;54.37
55466;BME280;41329;41.594;23.810;2022-10-22T09:08:51;96121.75;;;14.22;54.11
55466;BME280;41329;41.594;23.810;2022-10-22T09:11:30;96113.59;;;14.10;52.75
55466;BME280;41329;41.594;23.810;2022-10-22T09:13:57;96117.66;;;14.16;53.60
55466;BME280;41329;41.594;23.810;2022-10-22T09:16:36;96113.88;;;14.28;53.92
55466;BME280;41329;41.594;23.810;2022-10-22T09:21:55;96105.47;;;14.83;53.98
55466;BME280;41329;41.594;23.810;2022-10-22T09:24:33;96106.84;;;15.00;53.57
55466;BME280;41329;41.594;23.810;2022-10-22T09:27:03;96109.25;;;15.34;51.82
55466;BME280;41329;41.594;23.810;2022-10-22T09:29:34;96123.84;;;15.61;52.35
55466;BME280;41329;41.594;23.810;2022-10-22T09:31:59;96100.13;;;15.84;51.93
55466;BME280;41329;41.594;23.810;2022-10-22T09:34:25;96108.75;;;16.19;50.68
55466;BME280;41329;41.594;23.810;2022-10-22T09:37:17;96111.31;;;16.45;50.27
55466;BME280;41329;41.594;23.810;2022-10-22T09:39:50;96099.06;;;16.67;49.07
55466;BME280;41329;41.594;23.810;2022-10-22T09:42:17;96100.34;;;16.87;48.90
55466;BME280;41329;41.594;23.810;2022-10-22T09:44:44;96096.44;;;17.02;47.98
55466;BME280;41329;41.594;23.810;2022-10-22T09:52:42;96074.72;;;16.68;47.01
55466;BME280;41329;41.594;23.810;2022-10-22T09:55:16;96082.38;;;16.88;48.18
55466;BME280;41329;41.594;23.810;2022-10-22T09:57:42;96068.00;;;16.90;47.06
55466;BME280;41329;41.594;23.810;2022-10-22T10:00:09;96062.09;;;17.12;46.40
55466;BME280;41329;41.594;23.810;2022-10-22T10:02:38;96057.72;;;17.18;46.42
55466;BME280;41329;41.594;23.810;2022-10-22T10:05:05;96058.94;;;17.35;47.24
55466;BME280;41329;41.594;23.810;2022-10-22T10:07:33;96065.38;;;17.49;45.97
55466;BME280;41329;41.594;23.810;2022-10-22T10:09:59;96055.78;;;17.40;46.60
55466;BME280;41329;41.594;23.810;2022-10-22T10:17:49;96035.75;;;18.05;45.65
55466;BME280;41329;41.594;23.810;2022-10-22T10:23:21;96017.69;;;18.27;43.81
55466;BME280;41329;41.594;23.810;2022-10-22T10:25:59;96028.09;;;18.30;43.40
55466;BME280;41329;41.594;23.810;2022-10-22T10:36:26;96010.28;;;18.89;42.97
55466;BME280;41329;41.594;23.810;2022-10-22T10:39:12;96004.94;;;19.12;44.03
55466;BME280;41329;41.594;23.810;2022-10-22T10:41:55;96004.34;;;19.41;42.61
55466;BME280;41329;41.594;23.810;2022-10-22T10:44:38;96000.53;;;19.69;41.55
55466;BME280;41329;41.594;23.810;2022-10-22T10:58:48;95974.44;;;20.49;38.37
55466;BME280;41329;41.594;23.810;2022-10-22T11:07:13;95957.84;;;21.18;37.46
55466;BME280;41329;41.594;23.810;2022-10-22T11:09:53;95955.81;;;21.19;36.98
55466;BME280;41329;41.594;23.810;2022-10-22T11:12:32;95950.13;;;21.22;37.36
55466;BME280;41329;41.594;23.810;2022-10-22T11:18:00;95942.91;;;21.71;38.07
55466;BME280;41329;41.594;23.810;2022-10-22T11:23:20;95920.25;;;21.55;35.83
55466;BME280;41329;41.594;23.810;2022-10-22T11:25:49;95921.88;;;21.52;36.54
55466;BME280;41329;41.594;23.810;2022-10-22T11:28:20;95915.59;;;21.45;36.09
55466;BME280;41329;41.594;23.810;2022-10-22T11:30:55;95902.88;;;21.60;36.46
55466;BME280;41329;41.594;23.810;2022-10-22T11:33:26;95911.91;;;21.74;34.92
55466;BME280;41329;41.594;23.810;2022-10-22T11:35:54;95909.78;;;21.32;35.11
55466;BME280;41329;41.594;23.810;2022-10-22T11:38:24;95890.13;;;21.29;36.41
55466;BME280;41329;41.594;23.810;2022-10-22T11:40:51;95894.53;;;21.53;36.54
55466;BME280;41329;41.594;23.810;2022-10-22T11:43:50;95885.63;;;21.81;36.59
55466;BME280;41329;41.594;23.810;2022-10-22T11:48:41;95889.47;;;22.10;35.10
55466;BME280;41329;41.594;23.810;2022-10-22T11:51:45;95894.38;;;22.45;35.89
55466;BME280;41329;41.594;23.810;2022-10-22T11:57:21;95883.34;;;22.54;33.44
55466;BME280;41329;41.594;23.810;2022-10-22T11:59:55;95874.66;;;22.64;34.79
55466;BME280;41329;41.594;23.810;2022-10-22T12:05:32;95880.91;;;23.08;34.62
55466;BME280;41329;41.594;23.810;2022-10-22T12:08:25;95869.13;;;23.13;32.61
55466;BME280;41329;41.594;23.810;2022-10-22T12:10:57;95879.72;;;23.25;33.63
55466;BME280;41329;41.594;23.810;2022-10-22T12:13:27;95874.72;;;23.32;32.12
55466;BME280;41329;41.594;23.810;2022-10-22T12:15:57;95874.00;;;23.44;33.42
55466;BME280;41329;41.594;23.810;2022-10-22T12:18:33;95866.19;;;23.64;33.28
55466;BME280;41329;41.594;23.810;2022-10-22T12:20:59;95851.28;;;23.80;33.30
55466;BME280;41329;41.594;23.810;2022-10-22T12:23:30;95862.63;;;24.08;32.14
55466;BME280;41329;41.594;23.810;2022-10-22T12:25:56;95861.91;;;24.04;31.83
55466;BME280;41329;41.594;23.810;2022-10-22T12:28:22;95850.47;;;23.95;31.79
55466;BME280;41329;41.594;23.810;2022-10-22T12:30:47;95845.16;;;23.97;32.06
55466;BME280;41329;41.594;23.810;2022-10-22T12:33:31;95844.91;;;24.20;33.09
55466;BME280;41329;41.594;23.810;2022-10-22T12:35:57;95822.63;;;24.22;30.86
55466;BME280;41329;41.594;23.810;2022-10-22T12:38:28;95844.69;;;24.27;30.83
55466;BME280;41329;41.594;23.810;2022-10-22T12:40:55;95820.59;;;24.23;31.47
55466;BME280;41329;41.594;23.810;2022-10-22T12:43:28;95821.97;;;24.31;30.35
55466;BME280;41329;41.594;23.810;2022-10-22T12:45:55;95831.03;;;24.38;30.35
55466;BME280;41329;41.594;23.810;2022-10-22T12:48:32;95823.75;;;24.25;30.74
55466;BME280;41329;41.594;23.810;2022-10-22T12:51:02;95833.06;;;23.97;30.27
55466;BME280;41329;41.594;23.810;2022-10-22T12:53:34;95823.09;;;23.92;30.80
55466;BME280;41329;41.594;23.810;2022-10-22T12:56:05;95815.28;;;23.96;31.02
55466;BME280;41329;41.594;23.810;2022-10-22T12:58:38;95781.81;;;23.95;31.95
55466;BME280;41329;41.594;23.810;2022-10-22T13:01:05;95794.59;;;24.40;32.37
55466;BME280;41329;41.594;23.810;2022-10-22T13:03:36;95819.09;;;24.72;30.41
55466;BME280;41329;41.594;23.810;2022-10-22T13:06:33;95817.56;;;24.83;30.58
55466;BME280;41329;41.594;23.810;2022-10-22T13:09:26;95813.81;;;24.99;30.37
55466;BME280;41329;41.594;23.810;2022-10-22T13:12:05;95812.69;;;24.96;29.86
55466;BME280;41329;41.594;23.810;2022-10-22T13:14:32;95812.88;;;25.14;30.71
55466;BME280;41329;41.594;23.810;2022-10-22T13:22:27;95761.25;;;24.85;28.50
55466;BME280;41329;41.594;23.810;2022-10-22T13:24:54;95787.53;;;25.11;29.52
55466;BME280;41329;41.594;23.810;2022-10-22T13:27:25;95801.69;;;25.11;28.50
55466;BME280;41329;41.594;23.810;2022-10-22T13:29:51;95815.03;;;25.10;29.36
55466;BME280;41329;41.594;23.810;2022-10-22T13:32:26;95818.56;;;25.27;29.85
55466;BME280;41329;41.594;23.810;2022-10-22T13:34:55;95790.66;;;25.38;28.65
55466;BME280;41329;41.594;23.810;2022-10-22T13:37:21;95799.41;;;25.43;28.31
55466;BME280;41329;41.594;23.810;2022-10-22T13:39:46;95786.72;;;25.23;28.34
55466;BME280;41329;41.594;23.810;2022-10-22T13:42:12;95796.13;;;25.20;28.21
55466;BME280;41329;41.594;23.810;2022-10-22T13:44:37;95807.91;;;25.31;27.98
55466;BME280;41329;41.594;23.810;2022-10-22T13:47:08;95802.00;;;25.38;28.46
55466;BME280;41329;41.594;23.810;2022-10-22T13:49:39;95791.56;;;25.35;28.38
55466;BME280;41329;41.594;23.810;2022-10-22T13:52:10;95810.38;;;25.54;28.16
55466;BME280;41329;41.594;23.810;2022-10-22T13:54:40;95805.16;;;25.52;27.85
55466;BME280;41329;41.594;23.810;2022-10-22T13:57:09;95799.47;;;25.65;27.34
55466;BME280;41329;41.594;23.810;2022-10-22T13:59:34;95806.91;;;25.71;27.45
55466;BME280;41329;41.594;23.810;2022-10-22T14:02:00;95801.78;;;25.79;27.41
55466;BME280;41329;41.594;23.810;2022-10-22T14:04:38;95806.56;;;25.69;27.06
55466;BME280;41329;41.594;23.810;2022-10-22T14:07:11;95788.78;;;25.69;27.79
55466;BME280;41329;41.594;23.810;2022-10-22T14:09:37;95787.00;;;25.84;27.86
55466;BME280;41329;41.594;23.810;2022-10-22T14:12:10;95782.31;;;26.24;27.94
55466;BME280;41329;41.594;23.810;2022-10-22T14:14:35;95782.28;;;26.45;26.99
55466;BME280;41329;41.594;23.810;2022-10-22T14:17:03;95801.97;;;26.92;26.44
55466;BME280;41329;41.594;23.810;2022-10-22T14:19:29;95796.78;;;26.99;26.53
55466;BME280;41329;41.594;23.810;2022-10-22T14:21:54;95800.66;;;27.14;25.52
55466;BME280;41329;41.594;23.810;2022-10-22T14:24:20;95796.50;;;27.37;26.22
55466;BME280;41329;41.594;23.810;2022-10-22T14:26:45;95803.78;;;27.56;25.82
55466;BME280;41329;41.594;23.810;2022-10-22T14:29:11;95793.22;;;27.56;25.08
55466;BME280;41329;41.594;23.810;2022-10-22T14:31:41;95794.56;;;26.94;25.71
55466;BME280;41329;41.594;23.810;2022-10-22T14:34:10;95788.69;;;26.58;26.54
55466;BME280;41329;41.594;23.810;2022-10-22T14:36:37;95787.56;;;26.77;26.50
55466;BME280;41329;41.594;23.810;2022-10-22T14:39:02;95768.09;;;26.97;26.59
55466;BME280;41329;41.594;23.810;2022-10-22T14:41:28;95777.34;;;27.28;25.91